Time;durP1;ratioP1;P1;durP2;ratioP2;P2;SDS_P1;SDS_P2;PMS_P1;PMS_P2;Temp;Humidity;BMP_temperature;BMP_pressure;BME280_temperature;BME280_humidity;BME280_pressure;Samples;Min_cycle;Max_cycle;Signal;HPM_P1;HPM_P2
2022/05/20 00:02:06;;;;;;;21.07;19.10;;;17.30;99.90;;;;;;5093174;28;20976;-62
2022/05/20 00:04:33;;;;;;;22.63;20.53;;;17.30;99.90;;;;;;5093425;28;20805;-62
2022/05/20 00:07:00;;;;;;;22.30;20.10;;;17.30;99.90;;;;;;5093289;28;20550;-61
2022/05/20 00:09:27;;;;;;;23.73;21.30;;;17.30;99.90;;;;;;5098881;23;20510;-64
2022/05/20 00:11:54;;;;;;;23.20;20.10;;;17.30;99.90;;;;;;5073429;28;20450;-63
2022/05/20 00:14:23;;;;;;;22.90;20.60;;;17.40;99.90;;;;;;5072979;28;21172;-63
2022/05/20 00:16:50;;;;;;;23.20;21.00;;;17.40;99.90;;;;;;5073229;28;20458;-63
2022/05/20 00:19:17;;;;;;;23.47;21.07;;;17.40;99.90;;;;;;5073367;28;20467;-63
2022/05/20 00:21:44;;;;;;;22.20;20.00;;;17.40;99.90;;;;;;5073198;28;20450;-64
2022/05/20 00:24:11;;;;;;;23.27;21.00;;;17.40;99.90;;;;;;5072904;28;20435;-64
2022/05/20 00:26:38;;;;;;;23.40;21.30;;;17.40;99.90;;;;;;5077138;28;20443;-64
2022/05/20 00:29:05;;;;;;;23.17;20.90;;;17.40;99.90;;;;;;5077151;28;20463;-64
2022/05/20 00:31:34;;;;;;;24.43;22.00;;;17.40;99.90;;;;;;5077159;28;20449;-64
2022/05/20 00:34:01;;;;;;;23.90;21.50;;;17.30;99.90;;;;;;5076541;28;20993;-64
2022/05/20 00:36:28;;;;;;;22.60;20.30;;;17.30;99.90;;;;;;5076682;28;20447;-64
2022/05/20 00:38:55;;;;;;;25.40;22.80;;;17.20;99.90;;;;;;5077445;28;20463;-64
2022/05/20 00:41:22;;;;;;;25.10;22.43;;;17.20;99.90;;;;;;5076376;28;20443;-64
2022/05/20 00:43:51;;;;;;;23.60;21.20;;;17.30;99.90;;;;;;5076541;28;20451;-64
2022/05/20 00:46:20;;;;;;;24.80;22.50;;;17.30;99.90;;;;;;5076408;28;20454;-64
2022/05/20 00:48:57;;;;;;;25.00;22.50;;;17.30;99.90;;;;;;5076341;28;20504;-64
2022/05/20 00:51:29;;;;;;;24.80;21.77;;;17.30;99.90;;;;;;5078552;28;20461;-64
2022/05/20 00:54:00;;;;;;;25.23;22.73;;;17.30;99.90;;;;;;5080719;28;20474;-64
2022/05/20 00:56:31;;;;;;;27.67;25.00;;;17.30;99.90;;;;;;5076705;28;20434;-64
2022/05/20 00:58:59;;;;;;;24.10;21.73;;;17.20;99.90;;;;;;5076110;28;20471;-63
2022/05/20 01:01:28;;;;;;;26.77;24.17;;;17.20;99.90;;;;;;5076432;28;20455;-63
2022/05/20 01:03:57;;;;;;;25.03;22.73;;;17.10;99.90;;;;;;5076373;28;20451;-63
2022/05/20 01:06:25;;;;;;;25.53;23.03;;;17.10;99.90;;;;;;5076049;28;20454;-63
2022/05/20 01:08:52;;;;;;;27.60;24.90;;;17.00;99.90;;;;;;5085423;28;20470;-63
2022/05/20 01:11:19;;;;;;;26.33;23.67;;;17.00;99.90;;;;;;5096391;28;20453;-64
2022/05/20 01:13:49;;;;;;;28.60;24.70;;;16.90;99.90;;;;;;5096645;28;20449;-64
2022/05/20 01:16:17;;;;;;;27.83;24.80;;;17.00;99.90;;;;;;5096609;28;20814;-64
2022/05/20 01:18:48;;;;;;;29.77;26.73;;;17.00;99.90;;;;;;5096165;28;20496;-64
2022/05/20 01:21:16;;;;;;;27.33;24.67;;;17.00;99.90;;;;;;5096456;28;20521;-64
2022/05/20 01:23:45;;;;;;;28.03;25.27;;;17.00;99.90;;;;;;5096376;28;20442;-63
2022/05/20 01:26:12;;;;;;;27.20;24.50;;;17.00;99.90;;;;;;5096721;28;20448;-64
2022/05/20 01:28:39;;;;;;;28.27;25.23;;;16.90;99.90;;;;;;5096335;28;20844;-64
2022/05/20 01:31:10;;;;;;;25.37;22.87;;;16.90;99.90;;;;;;5096133;28;20934;-64
2022/05/20 01:33:39;;;;;;;27.30;24.70;;;16.90;99.90;;;;;;5096326;28;20890;-64
2022/05/20 01:36:10;;;;;;;27.77;23.47;;;16.90;99.90;;;;;;5095501;28;21008;-65
2022/05/20 01:38:37;;;;;;;26.57;23.87;;;16.80;99.90;;;;;;5096445;28;20469;-64
2022/05/20 01:41:07;;;;;;;27.37;24.47;;;16.70;99.90;;;;;;5100266;28;20461;-64
2022/05/20 01:43:48;;;;;;;31.27;25.53;;;16.60;99.90;;;;;;5104981;28;20433;-64
2022/05/20 01:46:24;;;;;;;32.40;24.93;;;16.40;99.90;;;;;;5105340;28;20422;-64
2022/05/20 01:48:59;;;;;;;27.10;23.90;;;16.40;99.90;;;;;;5105343;28;20829;-64
2022/05/20 01:51:31;;;;;;;25.30;21.00;;;16.30;99.90;;;;;;5104642;28;20833;-64
2022/05/20 01:54:05;;;;;;;25.37;21.47;;;16.30;99.90;;;;;;5102458;28;20426;-64
2022/05/20 01:56:37;;;;;;;23.47;21.07;;;16.20;99.90;;;;;;5100523;28;20449;-64
2022/05/20 01:59:10;;;;;;;23.53;21.13;;;16.10;99.90;;;;;;5100810;28;20477;-63
2022/05/20 02:01:44;;;;;;;25.43;21.27;;;16.00;99.90;;;;;;5099798;28;20426;-63
2022/05/20 02:04:16;;;;;;;24.37;21.17;;;15.90;99.90;;;;;;5099114;28;20438;-63
2022/05/20 02:06:50;;;;;;;25.77;22.30;;;15.80;99.90;;;;;;5096559;28;20429;-63
2022/05/20 02:09:24;;;;;;;24.60;22.00;;;15.80;99.90;;;;;;5097394;28;20478;-63
2022/05/20 02:11:55;;;;;;;26.20;23.27;;;15.70;99.90;;;;;;5096261;28;20435;-62
2022/05/20 02:14:28;;;;;;;26.93;23.03;;;15.60;99.90;;;;;;5095326;28;20473;-64
2022/05/20 02:17:02;;;;;;;24.40;21.47;;;15.50;99.90;;;;;;5095335;28;20430;-63
2022/05/20 02:19:34;;;;;;;24.53;22.03;;;15.50;99.90;;;;;;5095167;28;20961;-64
2022/05/20 02:22:06;;;;;;;26.67;22.30;;;15.40;99.90;;;;;;5095041;28;20434;-64
2022/05/20 02:24:36;;;;;;;28.10;23.27;;;15.30;99.90;;;;;;5095468;28;20430;-64
2022/05/20 02:27:09;;;;;;;24.70;22.10;;;15.30;99.90;;;;;;5095132;28;20456;-63
2022/05/20 02:29:41;;;;;;;25.77;23.00;;;15.20;99.90;;;;;;5094896;28;20481;-63
2022/05/20 02:32:12;;;;;;;27.13;24.30;;;15.20;99.90;;;;;;5095849;28;20430;-64
2022/05/20 02:34:39;;;;;;;28.63;23.80;;;15.10;99.90;;;;;;5094734;28;20498;-64
2022/05/20 02:37:19;;;;;;;32.00;25.67;;;15.10;99.90;;;;;;5094239;28;20795;-63
2022/05/20 02:39:46;;;;;;;29.23;24.00;;;15.10;99.90;;;;;;5094525;28;20489;-64
2022/05/20 02:42:15;;;;;;;28.67;24.00;;;15.10;99.90;;;;;;5094807;28;20446;-63
2022/05/20 02:44:42;;;;;;;28.43;24.40;;;15.10;99.90;;;;;;5093781;28;20453;-64
2022/05/20 02:47:11;;;;;;;28.67;23.90;;;15.10;99.90;;;;;;5094508;28;20468;-63
2022/05/20 02:49:38;;;;;;;31.47;24.97;;;15.10;99.90;;;;;;5092612;28;20852;-64
2022/05/20 02:52:06;;;;;;;25.87;23.27;;;15.10;99.90;;;;;;5094169;28;20442;-64
2022/05/20 02:54:33;;;;;;;28.37;25.27;;;15.10;99.90;;;;;;5094162;28;20832;-63
2022/05/20 02:57:00;;;;;;;31.20;26.00;;;15.10;99.90;;;;;;5093616;28;20449;-63
2022/05/20 03:04:57;;;;;;;27.33;23.53;;;15.10;99.90;;;;;;5094520;28;20448;-63
2022/05/20 03:07:24;;;;;;;28.13;25.33;;;15.10;99.90;;;;;;5094542;28;20442;-63
2022/05/20 03:09:51;;;;;;;28.30;24.47;;;15.10;99.90;;;;;;5094086;28;20482;-63
2022/05/20 03:12:19;;;;;;;29.40;26.30;;;15.10;99.90;;;;;;5094187;28;20466;-64
2022/05/20 03:14:47;;;;;;;30.60;26.83;;;15.10;99.90;;;;;;5095446;28;20477;-63
2022/05/20 03:17:14;;;;;;;28.93;25.87;;;15.10;99.90;;;;;;5094315;28;20446;-64
2022/05/20 03:19:41;;;;;;;31.10;26.40;;;15.00;99.90;;;;;;5093888;28;20458;-63
2022/05/20 03:22:09;;;;;;;31.47;24.30;;;15.00;99.90;;;;;;5093713;28;20563;-64
2022/05/20 03:24:37;;;;;;;29.40;25.67;;;15.10;99.90;;;;;;5093977;28;20453;-64
2022/05/20 03:27:05;;;;;;;28.57;25.40;;;15.00;99.90;;;;;;5094007;28;20447;-64
2022/05/20 03:29:33;;;;;;;28.80;24.53;;;15.00;99.90;;;;;;5093480;28;20458;-63
2022/05/20 03:32:01;;;;;;;31.43;26.67;;;15.00;99.90;;;;;;5093635;28;20438;-64
2022/05/20 03:34:28;;;;;;;29.33;26.20;;;14.90;99.90;;;;;;5092218;28;20482;-64
2022/05/20 03:36:56;;;;;;;32.00;26.67;;;14.90;99.90;;;;;;5093535;28;20920;-64
2022/05/20 03:39:25;;;;;;;32.30;27.60;;;14.90;99.90;;;;;;5093608;28;20462;-63
2022/05/20 03:41:53;;;;;;;29.07;25.17;;;14.80;99.90;;;;;;5093343;28;20864;-63
2022/05/20 03:44:20;;;;;;;32.13;27.03;;;14.90;99.90;;;;;;5093647;28;20473;-64
2022/05/20 03:46:50;;;;;;;33.13;28.37;;;14.90;99.90;;;;;;5093567;28;20438;-63
2022/05/20 03:49:19;;;;;;;32.13;26.57;;;14.90;99.90;;;;;;5093415;28;20543;-64
2022/05/20 03:51:49;;;;;;;33.83;26.07;;;14.90;99.90;;;;;;5093181;28;20461;-64
2022/05/20 03:54:17;;;;;;;30.93;27.00;;;15.00;99.90;;;;;;5093243;28;20442;-63
2022/05/20 03:56:44;;;;;;;32.20;25.83;;;15.00;99.90;;;;;;5092980;28;20474;-64
2022/05/20 03:59:12;;;;;;;29.53;26.07;;;15.00;99.90;;;;;;5093866;28;20484;-64
2022/05/20 04:01:59;;;;;;;31.80;25.40;;;15.00;99.90;;;;;;5093314;28;20449;-63
2022/05/20 04:04:32;;;;;;;31.00;25.73;;;15.10;99.90;;;;;;5093598;28;20430;-63
2022/05/20 04:09:48;;;;;;;28.90;24.23;;;15.30;99.90;;;;;;5111892;27;20993;-64
2022/05/20 04:12:24;;;;;;;27.03;24.23;;;15.30;99.90;;;;;;5111485;28;20499;-64
2022/05/20 04:14:51;;;;;;;29.07;26.00;;;15.20;99.90;;;;;;5111364;28;20426;-65
2022/05/20 04:17:18;;;;;;;38.33;26.20;;;15.10;99.90;;;;;;5112448;28;20457;-63
2022/05/20 04:19:45;;;;;;;30.60;27.30;;;15.00;99.90;;;;;;5110829;28;20473;-64
2022/05/20 04:22:15;;;;;;;30.60;26.13;;;15.00;99.90;;;;;;5112900;28;20449;-65
2022/05/20 04:24:42;;;;;;;29.40;24.83;;;15.00;99.90;;;;;;5113252;28;20467;-64
2022/05/20 04:27:10;;;;;;;30.37;25.13;;;15.00;99.90;;;;;;5109726;28;20483;-65
2022/05/20 04:29:38;;;;;;;26.50;23.87;;;15.10;99.90;;;;;;5111005;28;20485;-64
2022/05/20 04:32:05;;;;;;;26.30;23.03;;;15.20;99.90;;;;;;5111556;28;20456;-64
2022/05/20 04:34:32;;;;;;;27.00;23.23;;;15.30;99.90;;;;;;5110640;28;20457;-64
2022/05/20 04:36:59;;;;;;;24.60;21.50;;;15.50;99.90;;;;;;5110912;28;20449;-63
2022/05/20 04:39:27;;;;;;;24.07;21.50;;;15.70;99.90;;;;;;5110562;28;20794;-63
2022/05/20 04:47:27;;;;;;;22.33;19.93;;;16.30;99.90;;;;;;5110866;28;20535;-63
2022/05/20 04:49:55;;;;;;;20.80;18.43;;;16.60;99.90;;;;;;5110746;28;20587;-64
2022/05/20 04:52:22;;;;;;;19.20;17.30;;;16.80;99.90;;;;;;5110019;28;20441;-62
2022/05/20 04:54:51;;;;;;;18.97;17.07;;;16.90;99.90;;;;;;5110340;28;20449;-64
2022/05/20 04:57:25;;;;;;;19.37;17.33;;;16.80;99.90;;;;;;5109970;28;20968;-63
2022/05/20 04:59:57;;;;;;;20.27;17.87;;;16.80;99.90;;;;;;5111013;28;20576;-63
2022/05/20 05:02:25;;;;;;;16.90;15.20;;;16.80;99.90;;;;;;5097970;28;20867;-62
2022/05/20 05:04:52;;;;;;;16.50;14.90;;;16.70;99.90;;;;;;5090333;28;20449;-63
2022/05/20 05:07:19;;;;;;;18.97;16.17;;;16.60;99.90;;;;;;5089325;28;20453;-64
2022/05/20 05:09:47;;;;;;;16.77;15.17;;;16.50;99.90;;;;;;5090357;28;20505;-63
2022/05/20 05:12:15;;;;;;;19.10;17.10;;;16.50;99.90;;;;;;5109695;28;20451;-64
2022/05/20 05:14:46;;;;;;;16.60;14.90;;;16.50;99.90;;;;;;5103710;28;20462;-65
2022/05/20 05:17:17;;;;;;;16.60;15.00;;;16.60;99.90;;;;;;5098591;28;20959;-64
2022/05/20 05:19:45;;;;;;;14.90;13.50;;;16.80;99.90;;;;;;5105752;28;20828;-64
2022/05/20 05:22:13;;;;;;;15.60;14.10;;;16.80;99.90;;;;;;5086169;28;20459;-63
2022/05/20 05:24:41;;;;;;;15.23;13.73;;;16.90;99.90;;;;;;5094241;28;20450;-63
2022/05/20 05:27:08;;;;;;;14.97;13.47;;;16.90;99.90;;;;;;5110914;28;20453;-64
2022/05/20 05:29:39;;;;;;;15.67;13.70;;;16.90;99.90;;;;;;5086941;28;20574;-63
2022/05/20 05:32:06;;;;;;;17.00;14.50;;;16.80;99.90;;;;;;5097349;28;20917;-62
2022/05/20 05:34:35;;;;;;;14.13;12.43;;;16.80;99.90;;;;;;5097010;28;20461;-63
2022/05/20 05:37:03;;;;;;;14.37;12.87;;;16.80;99.90;;;;;;5097000;28;20810;-63
2022/05/20 05:39:31;;;;;;;14.20;12.63;;;16.80;99.90;;;;;;5094460;28;20869;-62
2022/05/20 05:42:01;;;;;;;15.53;13.23;;;16.90;99.90;;;;;;5084298;28;20446;-62
2022/05/20 05:44:28;;;;;;;13.67;12.47;;;17.00;99.90;;;;;;5083404;28;20943;-63
2022/05/20 05:46:55;;;;;;;13.60;12.20;;;17.10;99.90;;;;;;5080884;28;20988;-63
2022/05/20 05:49:23;;;;;;;16.60;13.00;;;17.10;99.90;;;;;;5077561;28;20483;-62
2022/05/20 05:51:53;;;;;;;14.40;12.93;;;17.10;99.30;;;;;;5078010;28;20823;-63
2022/05/20 05:54:22;;;;;;;14.10;12.80;;;17.00;99.20;;;;;;5078033;28;20497;-63
2022/05/20 05:56:50;;;;;;;14.43;12.80;;;17.10;98.90;;;;;;5077601;28;20447;-64
2022/05/20 05:59:17;;;;;;;14.40;12.90;;;17.00;98.60;;;;;;5076324;28;20458;-62
2022/05/20 06:01:44;;;;;;;13.47;12.17;;;17.10;98.50;;;;;;5079473;28;20578;-65
2022/05/20 06:04:11;;;;;;;13.70;12.30;;;17.00;98.30;;;;;;5075543;28;20450;-62
2022/05/20 06:06:38;;;;;;;12.30;11.20;;;17.00;98.00;;;;;;5076051;28;20447;-65
2022/05/20 06:09:06;;;;;;;11.30;10.30;;;16.90;97.60;;;;;;5089852;28;20950;-63
2022/05/20 06:11:33;;;;;;;11.97;10.70;;;16.90;97.40;;;;;;5098870;28;20449;-62
2022/05/20 06:14:01;;;;;;;12.00;10.73;;;16.80;97.30;;;;;;5096689;28;20467;-64
2022/05/20 06:16:28;;;;;;;12.97;10.70;;;16.90;97.00;;;;;;5077210;28;20459;-64
2022/05/20 06:18:55;;;;;;;10.50;9.30;;;16.90;96.80;;;;;;5095401;28;20469;-64
2022/05/20 06:21:22;;;;;;;10.53;9.53;;;17.00;96.40;;;;;;5091669;28;20470;-63
2022/05/20 06:23:49;;;;;;;11.13;9.70;;;17.10;95.70;;;;;;5078235;28;20454;-65
2022/05/20 06:26:17;;;;;;;10.60;9.70;;;17.00;95.00;;;;;;5092524;28;20453;-63
2022/05/20 06:28:44;;;;;;;10.80;9.80;;;17.00;95.10;;;;;;5096934;28;20493;-65
2022/05/20 06:31:11;;;;;;;9.80;8.97;;;17.10;94.80;;;;;;5101102;28;20466;-64
2022/05/20 06:33:39;;;;;;;12.33;10.57;;;17.30;94.50;;;;;;5092426;28;20441;-65
2022/05/20 06:41:37;;;;;;;11.00;9.97;;;17.50;93.30;;;;;;5090567;28;20428;-64
2022/05/20 06:44:05;;;;;;;13.40;9.30;;;17.60;92.90;;;;;;5102752;28;20446;-64
2022/05/20 06:46:32;;;;;;;10.70;9.63;;;17.60;92.20;;;;;;5100871;28;20446;-62
2022/05/20 06:49:00;;;;;;;10.20;9.17;;;17.60;92.50;;;;;;5102618;28;20486;-64
2022/05/20 06:51:30;;;;;;;11.23;9.70;;;17.50;92.40;;;;;;5102315;28;20438;-65
2022/05/20 06:54:00;;;;;;;10.80;9.90;;;17.50;92.40;;;;;;5101936;28;20446;-65
2022/05/20 06:56:29;;;;;;;11.20;10.20;;;17.60;92.40;;;;;;5100911;28;20445;-64
2022/05/20 06:58:58;;;;;;;11.53;10.33;;;17.70;92.10;;;;;;5100013;28;20985;-65
2022/05/20 07:01:25;;;;;;;10.57;9.47;;;17.70;92.00;;;;;;5101851;28;20443;-64
2022/05/20 07:03:53;;;;;;;11.10;8.77;;;17.80;92.20;;;;;;5101270;28;20857;-65
2022/05/20 07:06:20;;;;;;;10.60;9.60;;;17.90;92.00;;;;;;5100264;28;20447;-63
2022/05/20 07:08:49;;;;;;;10.23;9.33;;;17.80;91.60;;;;;;5094639;28;20492;-65
2022/05/20 07:11:18;;;;;;;9.23;8.37;;;17.80;91.40;;;;;;5094042;28;20438;-63
2022/05/20 07:13:45;;;;;;;9.47;8.60;;;17.70;91.70;;;;;;5093151;28;20453;-65
2022/05/20 07:16:14;;;;;;;9.50;8.63;;;17.70;91.30;;;;;;5094166;28;20446;-63
2022/05/20 07:18:41;;;;;;;9.80;8.83;;;17.70;91.00;;;;;;5094283;28;20477;-65
2022/05/20 07:21:08;;;;;;;9.27;8.47;;;17.70;90.70;;;;;;5094669;28;20450;-64
2022/05/20 07:23:35;;;;;;;9.80;8.90;;;17.70;90.70;;;;;;5093863;28;20449;-64
2022/05/20 07:26:03;;;;;;;9.70;8.60;;;17.80;90.50;;;;;;5094726;28;20446;-65
2022/05/20 07:28:31;;;;;;;10.40;9.47;;;17.90;90.30;;;;;;5094318;28;20472;-63
2022/05/20 07:30:59;;;;;;;9.90;9.00;;;18.10;90.10;;;;;;5093300;28;20442;-64
2022/05/20 07:33:30;;;;;;;10.03;9.20;;;18.10;89.20;;;;;;5093937;28;20481;-64
2022/05/20 07:35:57;;;;;;;8.87;8.17;;;18.20;88.90;;;;;;5093315;28;20431;-63
2022/05/20 07:38:24;;;;;;;9.07;8.17;;;18.20;88.60;;;;;;5094531;28;20965;-65
2022/05/20 07:40:51;;;;;;;10.17;8.40;;;18.20;87.70;;;;;;5099432;28;20436;-63
2022/05/20 07:43:20;;;;;;;10.23;9.23;;;18.30;87.60;;;;;;5094294;28;20446;-64
2022/05/20 07:45:47;;;;;;;9.10;8.30;;;18.30;87.00;;;;;;5094843;28;20510;-64
2022/05/20 07:48:14;;;;;;;8.53;7.73;;;18.30;87.60;;;;;;5093780;28;20470;-63
2022/05/20 07:50:46;;;;;;;10.80;8.30;;;18.40;87.30;;;;;;5094299;28;20470;-63
2022/05/20 07:53:21;;;;;;;8.30;7.50;;;18.50;86.10;;;;;;5093432;28;20491;-65
2022/05/20 07:55:53;;;;;;;8.47;7.60;;;18.60;84.80;;;;;;5094064;28;20430;-63
2022/05/20 07:58:26;;;;;;;9.17;8.20;;;18.60;84.20;;;;;;5096123;28;20470;-64
2022/05/20 08:00:54;;;;;;;9.20;8.30;;;18.70;83.30;;;;;;5094779;28;20918;-64
2022/05/20 08:06:05;;;;;;;7.97;7.07;;;18.80;81.40;;;;;;5094101;28;20434;-66
2022/05/20 08:08:32;;;;;;;9.10;7.37;;;18.90;79.80;;;;;;5093469;28;20527;-64
2022/05/20 08:10:59;;;;;;;9.00;8.30;;;19.00;79.00;;;;;;5094572;28;20442;-64
2022/05/20 08:13:26;;;;;;;9.83;8.77;;;19.20;78.30;;;;;;5094106;28;20438;-64
2022/05/20 08:15:53;;;;;;;10.17;8.20;;;19.20;77.80;;;;;;5092885;28;20453;-63
2022/05/20 08:18:20;;;;;;;7.43;6.83;;;19.20;77.50;;;;;;5092597;28;20973;-65
2022/05/20 08:20:47;;;;;;;7.30;6.60;;;19.20;77.20;;;;;;5092622;28;20951;-64
2022/05/20 08:23:16;;;;;;;7.50;6.90;;;19.30;74.60;;;;;;5093693;28;21010;-65
2022/05/20 08:25:43;;;;;;;7.47;6.67;;;19.30;71.90;;;;;;5094076;28;20537;-65
2022/05/20 08:28:10;;;;;;;7.13;6.43;;;19.40;70.80;;;;;;5092536;28;20466;-64
2022/05/20 08:30:37;;;;;;;8.57;6.97;;;19.30;69.40;;;;;;5093299;28;20504;-64
2022/05/20 08:33:05;;;;;;;7.47;6.20;;;19.40;69.10;;;;;;5090578;28;20533;-66
2022/05/20 08:35:32;;;;;;;8.67;6.77;;;19.50;69.00;;;;;;5090649;28;20559;-64
2022/05/20 08:37:59;;;;;;;8.30;7.27;;;19.70;68.40;;;;;;5093430;28;20458;-64
2022/05/20 08:40:30;;;;;;;7.70;7.00;;;19.90;67.70;;;;;;5092492;28;20453;-63
2022/05/20 08:43:00;;;;;;;8.70;6.60;;;20.00;66.80;;;;;;5093455;28;20426;-63
2022/05/20 08:45:32;;;;;;;7.93;6.30;;;20.10;65.70;;;;;;5093778;28;20446;-63
2022/05/20 08:47:59;;;;;;;7.37;6.67;;;20.10;65.20;;;;;;5092614;28;20430;-67
2022/05/20 08:50:33;;;;;;;10.53;7.53;;;20.10;64.70;;;;;;5092497;28;20489;-65
2022/05/20 08:53:00;;;;;;;6.70;5.97;;;20.20;63.60;;;;;;5093173;28;20429;-65
2022/05/20 08:55:29;;;;;;;7.30;6.50;;;20.30;63.00;;;;;;5095020;28;20442;-66
2022/05/20 08:57:59;;;;;;;8.40;7.60;;;20.40;62.00;;;;;;5094688;28;20933;-65
2022/05/20 09:00:28;;;;;;;7.80;7.00;;;20.40;62.00;;;;;;5097154;28;20446;-64
2022/05/20 09:02:56;;;;;;;6.70;5.97;;;20.40;61.50;;;;;;5096935;28;20441;-64
2022/05/20 09:05:26;;;;;;;8.43;7.63;;;20.50;61.00;;;;;;5095567;28;20441;-64
2022/05/20 09:08:01;;;;;;;8.80;7.30;;;20.50;60.60;;;;;;5096047;28;20469;-64
2022/05/20 09:10:42;;;;;;;11.40;7.07;;;20.60;60.20;;;;;;5095812;28;20610;-64
2022/05/20 09:13:20;;;;;;;7.53;6.83;;;20.70;60.50;;;;;;5095320;28;20901;-64
2022/05/20 09:15:57;;;;;;;7.27;6.57;;;20.70;60.20;;;;;;5075393;28;20427;-63
2022/05/20 09:18:34;;;;;;;8.83;6.37;;;20.80;60.00;;;;;;5075741;28;20458;-65
2022/05/20 09:21:01;;;;;;;8.30;6.03;;;20.90;59.90;;;;;;5077128;28;20430;-65
2022/05/20 09:23:30;;;;;;;7.83;6.03;;;21.00;59.50;;;;;;5075771;28;20458;-64
2022/05/20 09:26:03;;;;;;;7.20;5.67;;;21.10;59.20;;;;;;5076348;28;20450;-65
2022/05/20 09:28:36;;;;;;;6.30;5.33;;;21.30;58.70;;;;;;5075600;28;20470;-64
2022/05/20 09:31:07;;;;;;;6.80;5.40;;;21.60;57.60;;;;;;5079476;28;20467;-64
2022/05/20 09:33:37;;;;;;;6.53;5.87;;;21.80;57.20;;;;;;5082113;28;20412;-64
2022/05/20 09:36:05;;;;;;;7.03;5.70;;;21.90;56.70;;;;;;5080261;28;20446;-64
2022/05/20 09:38:38;;;;;;;7.67;6.03;;;22.10;56.00;;;;;;5080485;28;20783;-64
2022/05/20 09:41:20;;;;;;;6.37;5.80;;;22.10;54.40;;;;;;5079122;28;20442;-65
2022/05/20 09:43:57;;;;;;;5.63;5.13;;;21.90;54.70;;;;;;5075667;28;20443;-63
2022/05/20 09:46:40;;;;;;;5.70;5.20;;;21.90;55.00;;;;;;5075239;28;20930;-65
2022/05/20 09:49:15;;;;;;;5.80;5.20;;;22.10;54.80;;;;;;5075376;28;20458;-65
2022/05/20 09:51:50;;;;;;;6.40;5.80;;;22.30;54.50;;;;;;5075858;28;20449;-64
2022/05/20 09:54:21;;;;;;;7.00;6.30;;;22.60;53.90;;;;;;5075583;28;20427;-64
2022/05/20 09:57:03;;;;;;;6.43;5.83;;;22.70;53.20;;;;;;5074904;28;20446;-63
2022/05/20 09:59:37;;;;;;;6.47;5.93;;;22.70;53.00;;;;;;5075111;28;20502;-64
2022/05/20 10:02:10;;;;;;;7.07;5.80;;;22.90;53.00;;;;;;5075787;28;20420;-64
2022/05/20 10:04:47;;;;;;;8.57;6.73;;;22.90;53.00;;;;;;5074932;28;20431;-64
2022/05/20 10:07:20;;;;;;;9.70;6.60;;;22.90;53.40;;;;;;5074642;28;20792;-64
2022/05/20 10:09:54;;;;;;;7.63;6.83;;;23.00;53.70;;;;;;5074980;28;20494;-64
2022/05/20 10:12:29;;;;;;;7.50;6.80;;;23.30;53.60;;;;;;5075382;28;20445;-64
2022/05/20 10:15:02;;;;;;;9.83;7.40;;;23.50;53.30;;;;;;5075698;28;20942;-64
2022/05/20 10:17:44;;;;;;;6.87;6.17;;;23.70;53.20;;;;;;5075898;28;20438;-64
2022/05/20 10:20:16;;;;;;;6.40;5.80;;;23.70;53.20;;;;;;5075103;28;20488;-64
2022/05/20 10:22:54;;;;;;;8.47;6.13;;;23.90;53.10;;;;;;5087217;28;20979;-64
2022/05/20 10:25:29;;;;;;;7.70;7.00;;;24.10;52.50;;;;;;5094681;28;20433;-65
2022/05/20 10:28:03;;;;;;;8.03;7.33;;;24.30;52.20;;;;;;5095193;28;20449;-64
2022/05/20 10:33:25;;;;;;;9.33;7.30;;;24.50;51.00;;;;;;5094826;28;20402;-66
2022/05/20 10:36:11;;;;;;;8.13;7.33;;;24.60;50.90;;;;;;5091694;28;20991;-67
2022/05/20 10:38:59;;;;;;;11.50;7.20;;;24.50;50.30;;;;;;5094096;28;20466;-65
2022/05/20 10:41:58;;;;;;;9.97;8.03;;;24.20;50.30;;;;;;5086740;28;20442;-65
2022/05/20 10:50:32;;;;;;;8.20;6.77;;;23.80;50.40;;;;;;5093213;28;20473;-64
2022/05/20 10:53:12;;;;;;;8.73;6.07;;;23.90;50.50;;;;;;5094494;28;20435;-63
2022/05/20 10:55:48;;;;;;;6.60;6.00;;;23.80;50.30;;;;;;5094010;28;20439;-64
2022/05/20 10:58:53;;;;;;;8.57;7.30;;;23.80;50.70;;;;;;5094168;28;20458;-67
2022/05/20 11:01:35;;;;;;;7.33;6.63;;;24.00;50.60;;;;;;5043038;28;20476;-63
2022/05/20 11:04:29;;;;;;;6.03;5.00;;;24.10;50.50;;;;;;5093636;28;20430;-63
2022/05/20 11:07:32;;;;;;;9.10;6.03;;;24.20;50.70;;;;;;5094484;28;20423;-63
2022/05/20 11:10:14;;;;;;;8.23;7.43;;;24.70;50.30;;;;;;5093326;28;20524;-64
2022/05/20 11:12:51;;;;;;;5.93;5.40;;;25.10;49.30;;;;;;5092874;28;20485;-63
2022/05/20 11:15:37;;;;;;;11.03;7.03;;;25.20;49.00;;;;;;5094323;28;20525;-64
2022/05/20 11:18:49;;;;;;;6.27;5.80;;;25.30;48.70;;;;;;5098676;28;20565;-65
2022/05/20 11:21:39;;;;;;;7.07;6.37;;;25.30;48.80;;;;;;5042286;28;20500;-64
2022/05/20 11:24:31;;;;;;;6.83;6.17;;;25.40;48.80;;;;;;5108516;28;20442;-66
2022/05/20 11:27:21;;;;;;;7.80;6.10;;;25.30;48.90;;;;;;5100705;28;20442;-64
2022/05/20 11:30:17;;;;;;;8.50;6.10;;;25.30;49.30;;;;;;5102021;28;20520;-64
2022/05/20 11:33:06;;;;;;;6.57;5.83;;;25.50;49.50;;;;;;5105941;28;20438;-64
2022/05/20 11:35:59;;;;;;;7.47;6.77;;;25.80;49.10;;;;;;5107768;28;20427;-64
2022/05/20 11:38:49;;;;;;;7.03;6.10;;;26.20;48.10;;;;;;5098906;28;20478;-66
2022/05/20 11:41:30;;;;;;;7.80;7.10;;;26.10;47.90;;;;;;5102656;28;20821;-67
2022/05/20 11:44:27;;;;;;;10.47;7.30;;;26.10;48.00;;;;;;5103241;28;20430;-64
2022/05/20 11:47:26;;;;;;;6.97;6.40;;;26.20;47.50;;;;;;5093958;28;20442;-65
2022/05/20 11:50:27;;;;;;;9.03;5.80;;;26.20;47.40;;;;;;5079449;28;20473;-66
2022/05/20 11:53:02;;;;;;;7.03;5.27;;;26.10;47.60;;;;;;5094760;28;20430;-63
2022/05/20 11:55:36;;;;;;;9.13;5.30;;;26.30;47.40;;;;;;5093710;28;20491;-65
2022/05/20 11:58:05;;;;;;;7.77;6.10;;;26.70;46.70;;;;;;5094552;28;20552;-66
2022/05/20 12:00:36;;;;;;;8.80;6.70;;;27.20;45.20;;;;;;5096834;28;20454;-65
2022/05/20 12:03:07;;;;;;;8.30;5.13;;;27.40;44.20;;;;;;5093440;28;20429;-66
2022/05/20 12:05:40;;;;;;;7.03;5.30;;;27.60;43.60;;;;;;5093617;28;20442;-65
2022/05/20 12:08:07;;;;;;;6.30;5.70;;;27.90;43.00;;;;;;5093131;28;20474;-64
2022/05/20 12:10:47;;;;;;;5.70;5.10;;;28.30;42.50;;;;;;5093511;28;20572;-65
2022/05/20 12:13:21;;;;;;;5.53;5.03;;;28.60;41.90;;;;;;5094341;28;20442;-64
2022/05/20 12:15:51;;;;;;;5.63;5.10;;;28.90;41.30;;;;;;5092384;28;20430;-65
2022/05/20 12:24:31;;;;;;;9.77;3.90;;;29.40;40.00;;;;;;5092692;28;20444;-65
2022/05/20 12:27:00;;;;;;;4.80;3.77;;;29.80;39.70;;;;;;5091822;28;20438;-65
2022/05/20 12:30:05;;;;;;;4.83;4.33;;;30.00;39.50;;;;;;5092827;28;20458;-65
2022/05/20 12:32:53;;;;;;;4.67;4.10;;;30.30;38.80;;;;;;5096283;28;20441;-65
2022/05/20 12:35:24;;;;;;;6.60;3.70;;;29.60;39.00;;;;;;5096726;28;20469;-65
2022/05/20 12:38:26;;;;;;;5.20;4.00;;;29.10;39.70;;;;;;5096968;28;20450;-65
2022/05/20 12:40:59;;;;;;;5.00;3.70;;;28.70;40.00;;;;;;5096611;28;20793;-65
2022/05/20 12:43:51;;;;;;;4.67;3.60;;;28.50;40.30;;;;;;5096083;28;20529;-65
2022/05/20 12:46:48;;;;;;;6.10;5.50;;;28.40;40.40;;;;;;5096944;28;20914;-65
2022/05/20 12:49:15;;;;;;;4.20;3.17;;;28.30;40.50;;;;;;5096455;28;20458;-66
2022/05/20 12:51:46;;;;;;;3.37;3.07;;;28.10;41.00;;;;;;5095891;28;20478;-65
2022/05/20 12:54:19;;;;;;;4.47;3.00;;;27.90;41.70;;;;;;5095883;28;20936;-67
2022/05/20 12:56:47;;;;;;;4.10;3.00;;;27.70;42.50;;;;;;5096688;28;20442;-65
2022/05/20 12:59:19;;;;;;;3.47;3.17;;;27.60;42.70;;;;;;5085051;28;20483;-65
2022/05/20 13:01:52;;;;;;;4.07;3.40;;;27.60;42.80;;;;;;5094450;28;20426;-65
2022/05/20 13:04:21;;;;;;;4.73;3.80;;;27.60;42.90;;;;;;5096725;28;20426;-65
2022/05/20 13:06:49;;;;;;;3.80;3.23;;;27.80;42.90;;;;;;5094143;28;20608;-65
2022/05/20 13:09:27;;;;;;;4.07;3.70;;;27.70;42.90;;;;;;5093914;28;20497;-66
2022/05/20 13:12:03;;;;;;;5.10;3.73;;;27.50;43.00;;;;;;5079796;28;20557;-66
2022/05/20 13:14:31;;;;;;;5.17;3.50;;;27.60;43.50;;;;;;5080613;28;20496;-65
2022/05/20 13:17:01;;;;;;;3.60;3.17;;;28.00;43.50;;;;;;5079405;28;20455;-65
2022/05/20 13:19:34;;;;;;;5.57;3.20;;;28.50;43.20;;;;;;5093253;28;20482;-65
2022/05/20 13:22:05;;;;;;;5.20;3.33;;;28.80;43.00;;;;;;5095167;28;20437;-64
2022/05/20 13:24:37;;;;;;;4.30;3.53;;;28.70;43.10;;;;;;5099344;28;20937;-65
2022/05/20 13:27:11;;;;;;;3.83;3.20;;;28.70;43.60;;;;;;5080510;28;20845;-64
2022/05/20 13:29:41;;;;;;;4.47;4.03;;;28.70;43.70;;;;;;5079746;28;20459;-64
2022/05/20 13:32:20;;;;;;;5.23;4.73;;;28.60;44.00;;;;;;5080107;28;20479;-64
2022/05/20 13:34:50;;;;;;;6.57;5.17;;;28.30;44.70;;;;;;5082220;28;20837;-64
2022/05/20 13:37:23;;;;;;;4.90;3.40;;;28.00;45.40;;;;;;5081399;28;20808;-65